FMCH

Prince Said Ibrahim International Airport

Moroni, Comoros
METAR FMCH 221500Z VRB06KT 9999 FEW020 28/21 Q1014 NOSIG
Observed Flight Rules
May-22 @ 15:00 UTC (46 minutes ago) Visual Flight Rules
Wind Visibility Clouds
Variable at 6 knots 10,000+ meters
  • Few at 2,000' AGL
Temperatures Readings
Current 28°C / 82°F
Dewpoint 21°C / 70°F
Humidity 66%
Altimeter 29.94" Hg
Pressure 1014 hPa
Elevation 29
METAR FMCH 221500Z VRB06KT 9999 FEW020 28/21 Q1014 NOSIG
Observed Flight Rules
May-22 @ 15:00 UTC
(46 minutes ago)
VFR
Wind Visibility
Variable at 6 knots 10,000+ meters
Clouds
  • Few at 2,000' AGL
Temperature Dewpoint
28°C / 82°F 21°C / 70°F
Humidity Altimeter Pressure
66% 29.94" Hg 1014 hPa